Time;durP1;ratioP1;P1;durP2;ratioP2;P2;SDS_P1;SDS_P2;PMS_P1;PMS_P2;Temp;Humidity;BMP_temperature;BMP_pressure;BME280_temperature;BME280_humidity;BME280_pressure;Samples;Min_cycle;Max_cycle;Signal;HPM_P1;HPM_P2
2022/03/18 00:00:00;;;;;;;;;;;5.50;99.90;;;;;;5154408;27;20291;-78
2022/03/18 00:02:26;;;;;;;;;;;5.50;99.90;;;;;;5147413;27;19934;-79
2022/03/18 00:04:52;;;;;;;;;;;5.50;99.90;;;;;;5138284;27;20471;-79
2022/03/18 00:07:22;;;;;;;;;;;5.50;99.90;;;;;;5121038;27;19930;-78
2022/03/18 00:09:48;;;;;;;;;;;5.50;99.90;;;;;;5142158;27;19927;-78
2022/03/18 00:12:13;;;;;;;;;;;5.50;99.90;;;;;;5117204;27;19923;-79
2022/03/18 00:14:39;;;;;;;;;;;5.60;99.90;;;;;;5099436;27;20512;-78
2022/03/18 00:17:09;;;;;;;;;;;5.60;99.90;;;;;;5133895;27;19929;-78
2022/03/18 00:19:35;;;;;;;;;;;5.60;99.90;;;;;;5133227;27;19923;-79
2022/03/18 00:22:01;;;;;;;;;;;5.60;99.90;;;;;;5133439;27;20390;-78
2022/03/18 00:24:27;;;;;;;;;;;5.70;99.90;;;;;;5116499;27;19988;-79
2022/03/18 00:26:53;;;;;;;;;;;5.80;99.90;;;;;;5120130;27;20011;-79
2022/03/18 00:29:18;;;;;;;;;;;5.80;99.90;;;;;;5116628;28;20379;-78
2022/03/18 00:31:44;;;;;;;;;;;5.80;99.90;;;;;;5133322;27;19946;-79
2022/03/18 00:34:10;;;;;;;;;;;5.90;99.90;;;;;;5133058;27;19924;-78
2022/03/18 00:36:36;;;;;;;;;;;5.90;99.90;;;;;;5116034;27;19931;-78
2022/03/18 00:39:02;;;;;;;;;;;6.00;99.90;;;;;;5119537;27;19924;-78
2022/03/18 00:41:27;;;;;;;;;;;5.90;99.90;;;;;;5138803;27;19923;-78
2022/03/18 00:43:54;;;;;;;;;;;6.00;99.90;;;;;;5132858;27;19930;-78
2022/03/18 00:46:22;;;;;;;;;;;6.00;99.90;;;;;;5116235;28;19931;-79
2022/03/18 00:54:20;;;;;;;;;;;5.90;99.90;;;;;;5126176;27;19947;-80
2022/03/18 00:56:46;;;;;;;;;;;5.90;99.90;;;;;;5135497;27;19923;-79
2022/03/18 00:59:11;;;;;;;;;;;5.90;99.90;;;;;;5143520;27;19923;-80
2022/03/18 01:01:37;;;;;;;;;;;6.00;99.90;;;;;;5142687;27;19927;-83
2022/03/18 01:04:03;;;;;;;;;;;5.90;99.90;;;;;;5126929;28;19923;-80
2022/03/18 01:06:29;;;;;;;;;;;5.90;99.90;;;;;;5116029;28;20027;-79
2022/03/18 01:08:54;;;;;;;;;;;5.90;99.90;;;;;;5122915;27;19992;-79
2022/03/18 01:11:20;;;;;;;;;;;5.80;99.90;;;;;;5112768;28;19927;-79
2022/03/18 01:13:46;;;;;;;;;;;5.80;99.90;;;;;;5123058;28;19928;-80
2022/03/18 01:16:11;;;;;;;;;;;5.70;99.90;;;;;;5121340;28;20375;-80
2022/03/18 01:18:37;;;;;;;;;;;5.80;99.90;;;;;;5122948;27;19927;-79
2022/03/18 01:21:03;;;;;;;;;;;5.70;99.90;;;;;;5153427;27;19931;-80
2022/03/18 01:23:28;;;;;;;;;;;5.70;99.90;;;;;;5125984;27;20372;-79
2022/03/18 01:25:55;;;;;;;;;;;5.60;99.90;;;;;;5115502;28;19976;-79
2022/03/18 01:28:20;;;;;;;;;;;5.60;99.90;;;;;;5133192;27;19934;-79
2022/03/18 01:30:46;;;;;;;;;;;5.60;99.90;;;;;;5132722;27;20010;-79
2022/03/18 01:33:11;;;;;;;;;;;5.60;99.90;;;;;;5118325;27;19923;-79
2022/03/18 01:35:37;;;;;;;;;;;5.60;99.90;;;;;;5135555;27;19926;-79
2022/03/18 01:38:03;;;;;;;;;;;5.60;99.90;;;;;;5132515;28;20364;-80
2022/03/18 01:40:29;;;;;;;;;;;5.60;99.90;;;;;;5128107;27;19931;-80
2022/03/18 01:42:54;;;;;;;;;;;5.70;99.90;;;;;;5125785;27;20083;-80
2022/03/18 01:45:20;;;;;;;;;;;5.70;99.90;;;;;;5123696;28;19923;-79
2022/03/18 01:47:47;;;;;;;;;;;5.70;99.90;;;;;;5131447;27;19923;-80
2022/03/18 01:50:14;;;;;;;;;;;5.70;99.90;;;;;;5133782;27;19959;-83
2022/03/18 01:52:39;;;;;;;;;;;5.70;99.90;;;;;;5132640;28;19923;-80
2022/03/18 01:55:05;;;;;;;;;;;5.70;99.90;;;;;;5118513;27;19930;-80
2022/03/18 01:57:31;;;;;;;;;;;5.80;99.90;;;;;;5136051;27;20025;-80
2022/03/18 01:59:57;;;;;;;;;;;5.70;99.90;;;;;;5119039;27;20096;-80
2022/03/18 02:02:23;;;;;;;;;;;5.70;99.90;;;;;;5153227;27;19924;-80
2022/03/18 02:04:49;;;;;;;;;;;5.70;99.90;;;;;;5149406;27;19927;-80
2022/03/18 02:07:15;;;;;;;;;;;5.70;99.90;;;;;;5136445;27;19923;-79
2022/03/18 02:09:41;;;;;;;;;;;5.70;99.90;;;;;;5153040;27;19927;-80
2022/03/18 02:12:08;;;;;;;;;;;5.80;99.90;;;;;;5119831;27;19950;-80
2022/03/18 02:14:36;;;;;;;;;;;5.80;99.90;;;;;;5138194;27;19937;-80
2022/03/18 02:17:03;;;;;;;;;;;5.80;99.90;;;;;;5154688;27;19931;-80
2022/03/18 02:19:28;;;;;;;;;;;5.80;99.90;;;;;;5156860;27;19923;-80
2022/03/18 02:21:54;;;;;;;;;;;5.90;99.90;;;;;;5135795;27;20367;-80
2022/03/18 02:24:20;;;;;;;;;;;5.90;99.90;;;;;;5147444;27;19923;-80
2022/03/18 02:26:46;;;;;;;;;;;5.90;99.90;;;;;;5135645;27;19946;-81
2022/03/18 02:29:12;;;;;;;;;;;6.00;99.90;;;;;;5122277;27;19924;-80
2022/03/18 02:31:38;;;;;;;;;;;6.00;99.90;;;;;;5135606;27;19923;-80
2022/03/18 02:34:03;;;;;;;;;;;6.00;99.90;;;;;;5135095;27;19930;-79
2022/03/18 02:36:29;;;;;;;;;;;6.00;99.90;;;;;;5101677;27;19923;-80
2022/03/18 02:38:55;;;;;;;;;;;6.10;99.90;;;;;;5135493;27;19923;-80
2022/03/18 02:41:20;;;;;;;;;;;6.10;99.90;;;;;;5111192;27;19963;-80
2022/03/18 02:43:47;;;;;;;;;;;6.10;99.90;;;;;;5120773;27;19927;-84
2022/03/18 02:46:14;;;;;;;;;;;6.10;99.90;;;;;;5121872;27;20010;-80
2022/03/18 02:48:39;;;;;;;;;;;6.10;99.90;;;;;;5144316;27;19927;-80
2022/03/18 02:51:07;;;;;;;;;;;6.10;99.90;;;;;;5149591;27;19923;-80
2022/03/18 02:53:33;;;;;;;;;;;6.20;99.90;;;;;;5142803;27;19933;-80
2022/03/18 02:55:58;;;;;;;;;;;6.20;99.90;;;;;;5135671;27;19924;-80
2022/03/18 02:58:24;;;;;;;;;;;6.20;99.90;;;;;;5118982;27;20271;-81
2022/03/18 03:00:50;;;;;;;;;;;6.20;99.90;;;;;;5143481;27;20026;-81
2022/03/18 03:03:16;;;;;;;;;;;6.20;99.90;;;;;;5125192;27;20273;-80
2022/03/18 03:08:26;;;;;;;;;;;6.20;99.90;;;;;;5136627;27;19972;-84
2022/03/18 03:10:52;;;;;;;;;;;6.30;99.90;;;;;;5138199;27;19923;-81
2022/03/18 03:13:17;;;;;;;;;;;6.30;99.90;;;;;;5130319;27;19923;-80
2022/03/18 03:15:43;;;;;;;;;;;6.30;99.90;;;;;;5142940;27;19923;-81
2022/03/18 03:18:09;;;;;;;;;;;6.30;99.90;;;;;;5117005;27;20118;-80
2022/03/18 03:20:34;;;;;;;;;;;6.40;99.90;;;;;;5110123;27;20283;-80
2022/03/18 03:23:01;;;;;;;;;;;6.30;99.90;;;;;;5116597;27;19927;-80
2022/03/18 03:25:26;;;;;;;;;;;6.20;99.90;;;;;;5117778;27;19923;-81
2022/03/18 03:27:53;;;;;;;;;;;6.20;99.90;;;;;;5133206;27;19931;-80
2022/03/18 03:30:18;;;;;;;;;;;6.20;99.90;;;;;;5134413;27;20367;-80
2022/03/18 03:32:44;;;;;;;;;;;6.10;99.90;;;;;;5148860;27;19931;-80
2022/03/18 03:35:10;;;;;;;;;;;6.10;99.90;;;;;;5107286;27;19976;-81
2022/03/18 03:37:36;;;;;;;;;;;6.10;99.90;;;;;;5126954;27;20416;-83
2022/03/18 03:40:03;;;;;;;;;;;6.20;99.90;;;;;;5117452;27;19924;-80
2022/03/18 03:42:28;;;;;;;;;;;6.20;99.90;;;;;;5129817;27;20008;-77
2022/03/18 03:44:54;;;;;;;;;;;6.20;99.90;;;;;;5084685;28;20020;-77
2022/03/18 03:47:20;;;;;;;;;;;6.10;99.90;;;;;;5115546;27;20006;-77
2022/03/18 03:49:45;;;;;;;;;;;6.10;99.90;;;;;;5131767;27;20030;-77
2022/03/18 03:52:11;;;;;;;;;;;6.20;99.90;;;;;;5114899;27;19930;-78
2022/03/18 03:54:37;;;;;;;;;;;6.20;99.90;;;;;;5114803;27;19952;-77
2022/03/18 03:57:06;;;;;;;;;;;6.20;99.90;;;;;;5115650;27;19967;-78
2022/03/18 03:59:32;;;;;;;;;;;6.20;99.90;;;;;;5114308;27;19924;-78
2022/03/18 04:01:58;;;;;;;;;;;6.20;99.90;;;;;;5127082;27;19930;-77
2022/03/18 04:04:27;;;;;;;;;;;6.20;99.90;;;;;;5113391;28;19928;-77
2022/03/18 04:06:52;;;;;;;;;;;6.20;99.90;;;;;;5104412;28;19924;-77
2022/03/18 04:09:18;;;;;;;;;;;6.20;99.90;;;;;;5095774;28;19923;-77
2022/03/18 04:11:44;;;;;;;;;;;6.30;99.90;;;;;;5113434;28;19928;-78
2022/03/18 04:14:09;;;;;;;;;;;6.20;99.90;;;;;;5112548;28;20020;-77
2022/03/18 04:16:35;;;;;;;;;;;6.20;99.90;;;;;;5096262;28;19931;-77
2022/03/18 04:19:01;;;;;;;;;;;6.20;99.90;;;;;;5098367;27;19923;-78
2022/03/18 04:21:26;;;;;;;;;;;6.20;99.90;;;;;;5133210;27;19927;-78
2022/03/18 04:23:52;;;;;;;;;;;6.20;99.90;;;;;;5124202;27;19928;-77
2022/03/18 04:26:17;;;;;;;;;;;6.20;99.90;;;;;;5097680;28;20360;-77
2022/03/18 04:28:44;;;;;;;;;;;6.20;99.90;;;;;;5118845;27;19970;-77
2022/03/18 04:31:09;;;;;;;;;;;6.10;99.90;;;;;;5132521;27;19923;-77
2022/03/18 04:33:35;;;;;;;;;;;6.10;99.90;;;;;;5133712;27;19933;-78
2022/03/18 04:36:00;;;;;;;;;;;6.10;99.90;;;;;;5148279;27;19929;-77
2022/03/18 04:38:26;;;;;;;;;;;6.00;99.90;;;;;;5132779;27;19927;-77
2022/03/18 04:40:52;;;;;;;;;;;6.00;99.90;;;;;;5119909;27;19972;-77
2022/03/18 04:43:17;;;;;;;;;;;5.90;99.90;;;;;;5119516;27;19927;-77
2022/03/18 04:45:44;;;;;;;;;;;5.90;99.90;;;;;;5126369;27;19977;-77
2022/03/18 04:48:10;;;;;;;;;;;5.90;99.90;;;;;;5119523;27;19930;-78
2022/03/18 04:50:35;;;;;;;;;;;5.90;99.90;;;;;;5136434;27;19923;-78
2022/03/18 04:53:01;;;;;;;;;;;5.90;99.90;;;;;;5119057;27;19927;-78
2022/03/18 04:55:26;;;;;;;;;;;6.00;99.90;;;;;;5136745;27;19927;-80
2022/03/18 04:57:52;;;;;;;;;;;5.90;99.90;;;;;;5125992;27;19997;-80
2022/03/18 05:00:20;;;;;;;;;;;5.80;99.90;;;;;;5134194;27;20802;-80
2022/03/18 05:02:45;;;;;;;;;;;5.70;99.90;;;;;;5129326;27;19930;-80
2022/03/18 05:05:11;;;;;;;;;;;5.70;99.90;;;;;;5124491;27;19923;-80
2022/03/18 05:07:40;;;;;;;;;;;5.60;99.90;;;;;;5130221;27;20336;-80
2022/03/18 05:10:07;;;;;;;;;;;5.50;99.90;;;;;;5147978;27;19968;-81
2022/03/18 05:12:33;;;;;;;;;;;5.50;99.90;;;;;;5143394;27;19923;-80
2022/03/18 05:14:58;;;;;;;;;;;5.50;99.90;;;;;;5119851;27;19923;-80
2022/03/18 05:17:24;;;;;;;;;;;5.50;99.90;;;;;;5142604;27;19979;-80
2022/03/18 05:19:49;;;;;;;;;;;5.50;99.90;;;;;;5118893;27;19923;-79
2022/03/18 05:22:15;;;;;;;;;;;5.40;99.90;;;;;;5136195;27;20428;-80
2022/03/18 05:24:41;;;;;;;;;;;5.40;99.90;;;;;;5136464;27;20021;-80
2022/03/18 05:27:06;;;;;;;;;;;5.40;99.90;;;;;;5102074;27;20381;-80
2022/03/18 05:29:32;;;;;;;;;;;5.30;99.90;;;;;;5119240;27;19978;-80
2022/03/18 05:31:58;;;;;;;;;;;5.30;99.90;;;;;;5121935;27;19930;-80
2022/03/18 05:34:24;;;;;;;;;;;5.30;99.90;;;;;;5123260;27;20290;-80
2022/03/18 05:36:50;;;;;;;;;;;5.30;99.90;;;;;;5140251;27;19923;-80
2022/03/18 05:39:15;;;;;;;;;;;5.30;99.90;;;;;;5119681;27;19923;-80
2022/03/18 05:41:43;;;;;;;;;;;5.40;99.90;;;;;;5139729;27;19927;-79
2022/03/18 05:44:09;;;;;;;;;;;5.30;99.90;;;;;;5123878;27;20326;-80
2022/03/18 05:46:34;;;;;;;;;;;5.30;99.90;;;;;;5140013;27;20059;-80
2022/03/18 05:49:00;;;;;;;;;;;5.30;99.90;;;;;;5145912;27;19922;-80
2022/03/18 05:51:27;;;;;;;;;;;5.20;99.90;;;;;;5139577;27;20366;-80
2022/03/18 05:53:53;;;;;;;;;;;5.10;99.90;;;;;;5122553;27;19931;-80
2022/03/18 05:59:04;;;;;;;;;;;5.10;99.90;;;;;;5143328;27;19946;-79
2022/03/18 06:01:30;;;;;;;;;;;5.00;99.90;;;;;;5152765;27;20367;-80
2022/03/18 06:03:56;;;;;;;;;;;5.00;99.90;;;;;;5156297;27;19923;-80
2022/03/18 06:06:21;;;;;;;;;;;5.00;99.90;;;;;;5130660;27;19930;-79
2022/03/18 06:11:49;;;;;;;;;;;5.00;99.90;;;;;;5125239;27;19930;-81
2022/03/18 06:14:15;;;;;;;;;;;5.20;99.90;;;;;;5139003;27;19923;-80
2022/03/18 06:16:42;;;;;;;;;;;5.30;99.90;;;;;;5110679;27;19931;-80
2022/03/18 06:19:08;;;;;;;;;;;5.40;99.90;;;;;;5139305;27;19927;-80
2022/03/18 06:21:33;;;;;;;;;;;5.40;99.90;;;;;;5122219;27;19945;-79
2022/03/18 06:23:59;;;;;;;;;;;5.40;99.90;;;;;;5122395;27;19923;-80
2022/03/18 06:26:24;;;;;;;;;;;5.40;99.90;;;;;;5126963;27;19950;-80
2022/03/18 06:28:50;;;;;;;;;;;5.40;99.90;;;;;;5122367;27;19923;-80
2022/03/18 06:31:16;;;;;;;;;;;5.50;99.90;;;;;;5121701;27;19923;-80
2022/03/18 06:33:44;;;;;;;;;;;5.50;99.90;;;;;;5105015;27;19978;-79
2022/03/18 06:36:10;;;;;;;;;;;5.50;99.90;;;;;;5123330;27;19923;-79
2022/03/18 06:38:36;;;;;;;;;;;5.50;99.90;;;;;;5151123;27;19922;-79
2022/03/18 06:41:02;;;;;;;;;;;5.60;99.90;;;;;;5153863;27;19947;-80
2022/03/18 06:43:27;;;;;;;;;;;5.60;99.90;;;;;;5130479;27;19923;-80
2022/03/18 06:45:53;;;;;;;;;;;5.70;99.90;;;;;;5125135;27;19974;-80
2022/03/18 06:48:19;;;;;;;;;;;5.70;99.90;;;;;;5128640;27;19930;-82
2022/03/18 06:50:44;;;;;;;;;;;5.80;99.90;;;;;;5124183;27;19923;-79
2022/03/18 06:53:10;;;;;;;;;;;5.80;99.90;;;;;;5135798;27;19923;-84
2022/03/18 06:55:35;;;;;;;;;;;5.90;99.90;;;;;;5114448;27;19927;-80
2022/03/18 06:58:01;;;;;;;;;;;5.90;99.90;;;;;;5130947;27;19930;-80
2022/03/18 07:00:27;;;;;;;;;;;6.00;99.90;;;;;;5155223;27;19987;-81
2022/03/18 07:02:53;;;;;;;;;;;6.00;99.90;;;;;;5125494;27;20332;-79
2022/03/18 07:05:19;;;;;;;;;;;6.10;99.90;;;;;;5120476;27;20005;-80
2022/03/18 07:07:44;;;;;;;;;;;6.10;99.90;;;;;;5130436;27;19929;-81
2022/03/18 07:10:12;;;;;;;;;;;6.30;99.90;;;;;;5137645;27;19959;-81
2022/03/18 07:12:38;;;;;;;;;;;6.30;99.90;;;;;;5131090;27;19927;-81
2022/03/18 07:15:04;;;;;;;;;;;6.30;99.90;;;;;;5138949;27;19922;-80
2022/03/18 07:20:14;;;;;;;;;;;6.40;99.90;;;;;;5158262;27;19926;-81
2022/03/18 07:22:40;;;;;;;;;;;6.50;99.90;;;;;;5141127;27;19922;-81
2022/03/18 07:25:06;;;;;;;;;;;6.60;99.90;;;;;;5132259;27;19922;-81
2022/03/18 07:27:32;;;;;;;;;;;6.70;99.90;;;;;;5136702;27;19957;-81
2022/03/18 07:29:58;;;;;;;;;;;6.80;99.90;;;;;;5141151;27;19923;-80
2022/03/18 07:32:23;;;;;;;;;;;6.80;99.90;;;;;;5125851;27;20371;-79
2022/03/18 07:34:49;;;;;;;;;;;7.00;99.90;;;;;;5119765;27;20428;-83
2022/03/18 07:37:14;;;;;;;;;;;7.10;99.90;;;;;;5137622;27;19923;-85
2022/03/18 07:39:40;;;;;;;;;;;7.20;99.90;;;;;;5120328;27;19979;-81
2022/03/18 07:42:06;;;;;;;;;;;7.30;99.90;;;;;;5137949;27;19927;-93
2022/03/18 07:44:31;;;;;;;;;;;7.40;99.90;;;;;;5140492;27;19923;-81
2022/03/18 07:46:57;;;;;;;;;;;7.50;99.90;;;;;;5145645;27;19934;-82
2022/03/18 07:49:22;;;;;;;;;;;7.60;99.90;;;;;;5127450;27;19924;-81
2022/03/18 07:51:48;;;;;;;;;;;7.80;99.90;;;;;;5148998;27;19923;-82
2022/03/18 07:54:14;;;;;;;;;;;7.80;99.90;;;;;;5113392;27;19930;-82
2022/03/18 07:56:40;;;;;;;;;;;7.90;99.90;;;;;;5122177;27;19923;-82
2022/03/18 07:59:05;;;;;;;;;;;8.00;99.90;;;;;;5118514;27;20606;-82
2022/03/18 08:01:31;;;;;;;;;;;8.10;99.90;;;;;;5118554;27;20013;-82
2022/03/18 08:03:57;;;;;;;;;;;8.20;99.90;;;;;;5138616;27;20397;-82
2022/03/18 08:06:22;;;;;;;;;;;8.20;99.90;;;;;;5154767;27;20019;-82
2022/03/18 08:08:48;;;;;;;;;;;8.30;99.90;;;;;;5140284;27;19923;-81
2022/03/18 08:11:14;;;;;;;;;;;8.40;99.90;;;;;;5140159;27;20471;-82
2022/03/18 08:13:39;;;;;;;;;;;8.50;99.90;;;;;;5139376;27;19942;-82
2022/03/18 08:16:05;;;;;;;;;;;8.50;99.90;;;;;;5138000;27;19949;-82
2022/03/18 08:18:31;;;;;;;;;;;8.70;99.90;;;;;;5139696;27;19927;-82
2022/03/18 08:23:41;;;;;;;;;;;8.70;99.90;;;;;;5139527;27;20259;-82
2022/03/18 08:26:06;;;;;;;;;;;8.80;99.90;;;;;;5147248;27;19926;-83
2022/03/18 08:28:32;;;;;;;;;;;8.80;99.90;;;;;;5138541;27;19930;-83
2022/03/18 08:30:57;;;;;;;;;;;8.90;99.90;;;;;;5121769;27;19923;-83
2022/03/18 08:33:24;;;;;;;;;;;8.90;99.90;;;;;;5128355;27;20009;-84
2022/03/18 08:35:50;;;;;;;;;;;9.00;99.90;;;;;;5136039;27;19967;-84
2022/03/18 08:38:16;;;;;;;;;;;9.00;99.90;;;;;;5136390;27;19927;-85
2022/03/18 08:40:41;;;;;;;;;;;9.10;99.90;;;;;;5136520;27;19937;-84
2022/03/18 08:43:09;;;;;;;;;;;9.20;99.90;;;;;;5118696;27;20018;-85
2022/03/18 08:45:34;;;;;;;;;;;9.20;99.90;;;;;;5119355;27;20004;-85
2022/03/18 08:48:00;;;;;;;;;;;9.20;99.90;;;;;;5119314;27;20029;-86
2022/03/18 08:50:26;;;;;;;;;;;9.30;99.90;;;;;;5119151;27;19977;-85
2022/03/18 08:52:53;;;;;;;;;;;9.40;99.90;;;;;;5136463;27;19948;-85
2022/03/18 08:55:20;;;;;;;;;;;9.40;99.90;;;;;;5131689;27;19947;-84
2022/03/18 08:57:46;;;;;;;;;;;9.50;99.90;;;;;;5135979;27;19927;-85
2022/03/18 09:00:14;;;;;;;;;;;9.50;99.90;;;;;;5139652;27;20359;-86
2022/03/18 09:02:40;;;;;;;;;;;9.50;99.90;;;;;;5120199;27;19923;-86
2022/03/18 09:05:07;;;;;;;;;;;9.60;99.90;;;;;;5137008;27;20443;-84
2022/03/18 09:07:33;;;;;;;;;;;9.60;99.90;;;;;;5141303;27;19923;-84
2022/03/18 09:09:59;;;;;;;;;;;9.70;99.90;;;;;;5157380;27;19929;-85
2022/03/18 09:12:25;;;;;;;;;;;9.70;99.90;;;;;;5158293;27;19923;-84
2022/03/18 09:14:51;;;;;;;;;;;9.70;99.90;;;;;;5126681;27;20009;-86
2022/03/18 09:17:16;;;;;;;;;;;9.80;99.90;;;;;;5123242;27;20330;-83
2022/03/18 09:19:42;;;;;;;;;;;9.80;99.90;;;;;;5139700;27;19976;-85
2022/03/18 09:22:08;;;;;;;;;;;9.80;99.90;;;;;;5124201;27;19923;-86
2022/03/18 09:24:35;;;;;;;;;;;9.80;99.90;;;;;;5140537;27;19966;-86
2022/03/18 09:27:01;;;;;;;;;;;9.90;99.90;;;;;;5141094;27;19934;-86
2022/03/18 09:29:26;;;;;;;;;;;10.00;99.90;;;;;;5122843;27;19923;-84
2022/03/18 09:31:52;;;;;;;;;;;10.00;99.90;;;;;;5122714;27;19927;-86
2022/03/18 09:34:22;;;;;;;;;;;10.00;99.90;;;;;;5126644;27;19926;-83
2022/03/18 09:36:48;;;;;;;;;;;10.10;99.90;;;;;;5126209;27;20017;-80
2022/03/18 09:39:14;;;;;;;;;;;10.20;99.90;;;;;;5156930;27;19970;-81
2022/03/18 09:41:40;;;;;;;;;;;10.30;99.90;;;;;;5139015;27;19975;-80
2022/03/18 09:44:05;;;;;;;;;;;10.30;99.90;;;;;;5137061;27;19934;-82
2022/03/18 09:46:32;;;;;;;;;;;10.40;99.90;;;;;;5131164;27;20347;-82
2022/03/18 09:48:58;;;;;;;;;;;10.50;99.90;;;;;;5135026;27;19927;-83
2022/03/18 09:51:24;;;;;;;;;;;10.60;99.90;;;;;;5125542;27;19967;-83
2022/03/18 09:53:49;;;;;;;;;;;10.70;99.90;;;;;;5129995;27;20031;-84
2022/03/18 09:56:15;;;;;;;;;;;10.70;99.90;;;;;;5112335;27;20583;-84
2022/03/18 09:58:40;;;;;;;;;;;10.80;99.90;;;;;;5129464;27;19927;-83
2022/03/18 10:01:06;;;;;;;;;;;10.90;99.90;;;;;;5142847;27;19923;-84
2022/03/18 10:03:36;;;;;;;;;;;11.00;99.90;;;;;;5144241;27;19975;-84
2022/03/18 10:06:04;;;;;;;;;;;11.10;99.90;;;;;;5140793;27;19974;-82
2022/03/18 10:08:35;;;;;;;;;;;11.10;99.90;;;;;;5129504;27;19946;-83
2022/03/18 10:11:23;;;;;;;;;;;11.20;99.90;;;;;;5144649;27;19927;-84
2022/03/18 10:14:08;;;;;;;;;;;11.30;99.90;;;;;;5148666;27;19923;-82
2022/03/18 10:16:34;;;;;;;;;;;11.40;99.90;;;;;;5132641;27;19923;-84
2022/03/18 10:19:01;;;;;;;;;;;11.50;99.90;;;;;;5125409;27;19923;-86
2022/03/18 10:21:27;;;;;;;;;;;11.60;99.90;;;;;;5122236;27;19934;-87
2022/03/18 10:24:06;;;;;;;;;;;11.60;99.90;;;;;;5135699;27;19924;-81
2022/03/18 10:26:36;;;;;;;;;;;11.60;99.90;;;;;;5136920;27;20088;-82
2022/03/18 10:29:03;;;;;;;;;;;11.70;99.90;;;;;;5134342;27;19930;-81
2022/03/18 10:31:28;;;;;;;;;;;11.70;99.90;;;;;;5127772;27;19981;-80
2022/03/18 10:39:29;;;;;;;;;;;11.80;99.90;;;;;;5137308;27;20412;-83
2022/03/18 10:41:55;;;;;;;;;;;11.90;99.90;;;;;;5134563;27;19934;-85
2022/03/18 10:44:21;;;;;;;;;;;12.00;99.90;;;;;;5117608;27;19927;-82
2022/03/18 10:46:48;;;;;;;;;;;12.00;99.90;;;;;;5100353;27;19927;-84
2022/03/18 10:49:13;;;;;;;;;;;12.10;99.90;;;;;;5120571;27;20309;-84
2022/03/18 10:51:39;;;;;;;;;;;12.10;99.90;;;;;;5117264;27;19923;-84
2022/03/18 10:54:05;;;;;;;;;;;12.20;99.90;;;;;;5106248;27;20025;-84
2022/03/18 10:56:50;;;;;;;;;;;12.30;99.90;;;;;;5122001;27;19927;-84
2022/03/18 10:59:17;;;;;;;;;;;12.40;99.90;;;;;;5134423;27;19935;-84
2022/03/18 11:01:46;;;;;;;;;;;12.60;99.90;;;;;;5116820;27;20476;-84
2022/03/18 11:04:14;;;;;;;;;;;12.70;99.90;;;;;;5134485;27;19923;-84
2022/03/18 11:06:40;;;;;;;;;;;12.80;99.90;;;;;;5133981;27;19923;-83
2022/03/18 11:09:07;;;;;;;;;;;12.90;99.90;;;;;;5116779;27;19928;-84
2022/03/18 11:11:33;;;;;;;;;;;13.00;99.90;;;;;;5143172;27;19930;-84
2022/03/18 11:14:03;;;;;;;;;;;13.10;99.90;;;;;;5133615;27;19923;-83
2022/03/18 11:16:31;;;;;;;;;;;13.10;99.90;;;;;;5116095;27;20390;-84
2022/03/18 11:18:58;;;;;;;;;;;13.20;99.90;;;;;;5116401;27;19946;-83
2022/03/18 11:21:35;;;;;;;;;;;13.30;99.90;;;;;;5128866;27;19981;-88
2022/03/18 11:24:03;;;;;;;;;;;13.30;99.90;;;;;;5133922;27;19927;-86
2022/03/18 11:26:29;;;;;;;;;;;13.50;99.90;;;;;;5133660;27;20005;-82
2022/03/18 11:29:09;;;;;;;;;;;13.70;99.90;;;;;;5127299;27;20696;-85
2022/03/18 11:31:35;;;;;;;;;;;13.90;99.90;;;;;;5133220;27;19927;-84
2022/03/18 11:34:08;;;;;;;;;;;13.90;99.90;;;;;;5132473;27;19987;-85
2022/03/18 11:36:35;;;;;;;;;;;14.00;99.90;;;;;;5116308;27;20406;-85
2022/03/18 11:39:02;;;;;;;;;;;14.20;99.90;;;;;;5134082;27;19967;-86
2022/03/18 11:41:48;;;;;;;;;;;14.40;99.90;;;;;;5133390;27;19924;-85
2022/03/18 11:44:32;;;;;;;;;;;14.40;99.90;;;;;;5116532;27;20423;-85
2022/03/18 11:47:17;;;;;;;;;;;14.70;99.90;;;;;;5115788;27;19931;-86
2022/03/18 11:49:43;;;;;;;;;;;14.80;99.90;;;;;;5138309;27;20273;-85
2022/03/18 11:52:08;;;;;;;;;;;14.90;99.90;;;;;;5116361;27;19930;-86
2022/03/18 11:54:48;;;;;;;;;;;15.10;99.90;;;;;;5115886;27;19981;-85
2022/03/18 11:57:26;;;;;;;;;;;15.30;99.90;;;;;;5116481;27;19931;-85
2022/03/18 11:59:53;;;;;;;;;;;15.50;99.90;;;;;;5124532;27;20351;-85
2022/03/18 12:02:19;;;;;;;;;;;15.70;99.90;;;;;;5115612;27;19923;-87
2022/03/18 12:04:50;;;;;;;;;;;15.90;99.90;;;;;;5132459;27;20056;-82
2022/03/18 12:07:16;;;;;;;;;;;16.10;99.90;;;;;;5133037;27;19927;-89
2022/03/18 12:09:51;;;;;;;;;;;16.30;99.90;;;;;;5132320;27;19927;-87
2022/03/18 12:12:19;;;;;;;;;;;16.50;99.90;;;;;;5117341;27;19927;-90
2022/03/18 12:14:44;;;;;;;;;;;16.70;99.90;;;;;;5133296;27;19923;-86
2022/03/18 12:17:10;;;;;;;;;;;16.90;99.90;;;;;;5115784;27;20026;-84
2022/03/18 12:19:36;;;;;;;;;;;16.90;99.90;;;;;;5138201;27;20375;-85
2022/03/18 12:22:02;;;;;;;;;;;16.90;99.90;;;;;;5128999;27;19927;-86
2022/03/18 12:24:32;;;;;;;;;;;17.00;99.90;;;;;;5116048;27;20017;-86
2022/03/18 12:27:00;;;;;;;;;;;17.00;99.90;;;;;;5123887;27;19976;-85
2022/03/18 12:29:27;;;;;;;;;;;17.10;99.90;;;;;;5117855;27;19934;-87
2022/03/18 12:32:02;;;;;;;;;;;17.10;99.90;;;;;;5134193;27;19946;-86
2022/03/18 12:34:27;;;;;;;;;;;17.00;99.90;;;;;;5143766;27;19927;-85
2022/03/18 12:36:53;;;;;;;;;;;16.90;99.90;;;;;;5113772;27;19924;-86
2022/03/18 12:39:19;;;;;;;;;;;16.80;99.90;;;;;;5131081;27;19924;-85
2022/03/18 12:41:45;;;;;;;;;;;16.70;99.90;;;;;;5133185;27;19980;-85
2022/03/18 12:44:10;;;;;;;;;;;16.70;99.90;;;;;;5144446;27;19946;-84
2022/03/18 12:46:37;;;;;;;;;;;16.50;99.90;;;;;;5136539;27;20368;-84
2022/03/18 12:49:03;;;;;;;;;;;16.30;99.90;;;;;;5136680;27;19938;-84
2022/03/18 12:51:29;;;;;;;;;;;16.10;99.90;;;;;;5132940;28;19930;-85
2022/03/18 12:53:56;;;;;;;;;;;15.90;99.90;;;;;;5097429;27;19928;-85
2022/03/18 12:56:24;;;;;;;;;;;15.90;99.90;;;;;;5132580;28;19924;-84
2022/03/18 12:58:51;;;;;;;;;;;15.90;99.90;;;;;;5132833;28;19927;-84
2022/03/18 13:01:17;;;;;;;;;;;15.80;99.90;;;;;;5138991;27;20456;-84
2022/03/18 13:03:50;;;;;;;;;;;15.90;99.90;;;;;;5127468;27;19931;-85
2022/03/18 13:06:20;;;;;;;;;;;15.60;99.90;;;;;;5153396;27;19923;-86
2022/03/18 13:08:52;;;;;;;;;;;15.50;99.90;;;;;;5116241;28;19935;-86
2022/03/18 13:11:18;;;;;;;;;;;15.50;99.90;;;;;;5132585;27;20439;-86
2022/03/18 13:13:46;;;;;;;;;;;15.40;99.90;;;;;;5132388;28;20080;-86
2022/03/18 13:16:14;;;;;;;;;;;15.40;99.90;;;;;;5132266;28;19930;-86
2022/03/18 13:18:48;;;;;;;;;;;15.40;99.90;;;;;;5115657;28;19924;-86
2022/03/18 13:21:13;;;;;;;;;;;15.20;99.90;;;;;;5147337;27;19930;-85
2022/03/18 13:23:40;;;;;;;;;;;15.00;99.90;;;;;;5131578;28;19923;-85
2022/03/18 13:26:06;;;;;;;;;;;14.90;99.90;;;;;;5132309;28;19927;-86
2022/03/18 13:28:32;;;;;;;;;;;14.90;99.90;;;;;;5135918;27;19968;-86
2022/03/18 13:33:49;;;;;;;;;;;15.00;99.90;;;;;;5152762;27;20359;-81
2022/03/18 13:36:31;;;;;;;;;;;15.20;99.90;;;;;;5136654;27;19931;-91
2022/03/18 13:38:58;;;;;;;;;;;15.50;99.90;;;;;;5129854;28;19980;-86
2022/03/18 13:41:25;;;;;;;;;;;15.60;99.90;;;;;;5136210;27;19923;-80
2022/03/18 13:43:55;;;;;;;;;;;15.80;99.90;;;;;;5121015;27;20445;-85
2022/03/18 13:46:24;;;;;;;;;;;15.70;99.90;;;;;;5137117;27;20006;-86
2022/03/18 13:48:50;;;;;;;;;;;15.90;99.90;;;;;;5120207;27;19923;-85
2022/03/18 13:51:30;;;;;;;;;;;16.10;99.90;;;;;;5124412;27;19963;-86
2022/03/18 13:54:08;;;;;;;;;;;16.30;99.90;;;;;;5123494;27;20337;-86
2022/03/18 13:56:35;;;;;;;;;;;16.50;99.90;;;;;;5121347;27;19923;-85
2022/03/18 13:59:14;;;;;;;;;;;16.90;99.90;;;;;;5123642;27;19934;-85
2022/03/18 14:01:54;;;;;;;;;;;17.20;99.90;;;;;;5126367;27;19923;-86
2022/03/18 14:04:20;;;;;;;;;;;17.70;99.90;;;;;;5121546;27;20292;-85
2022/03/18 14:06:56;;;;;;;;;;;18.40;99.90;;;;;;5119456;27;19927;-86
2022/03/18 14:09:22;;;;;;;;;;;19.00;99.90;;;;;;5147312;27;20033;-85
2022/03/18 14:14:33;;;;;;;;;;;19.70;98.80;;;;;;5143763;27;19927;-86
2022/03/18 14:17:11;;;;;;;;;;;20.00;99.20;;;;;;5122199;27;19930;-86
2022/03/18 14:20:00;;;;;;;;;;;20.10;97.40;;;;;;5151549;27;20426;-82
2022/03/18 14:22:34;;;;;;;;;;;20.30;96.30;;;;;;5138657;27;19923;-84
2022/03/18 14:25:05;;;;;;;;;;;20.60;96.30;;;;;;5139445;27;19946;-83
2022/03/18 14:27:30;;;;;;;;;;;20.70;95.50;;;;;;5146126;27;20372;-86
2022/03/18 14:29:56;;;;;;;;;;;20.90;95.40;;;;;;5135401;27;19930;-83
2022/03/18 14:32:22;;;;;;;;;;;21.00;93.20;;;;;;5142449;27;19931;-82
2022/03/18 14:34:50;;;;;;;;;;;21.10;93.80;;;;;;5148800;27;19934;-82
2022/03/18 14:37:16;;;;;;;;;;;21.20;92.90;;;;;;5123130;27;19931;-86
2022/03/18 14:39:42;;;;;;;;;;;21.30;91.30;;;;;;5137900;27;19992;-84
2022/03/18 14:42:07;;;;;;;;;;;21.50;91.80;;;;;;5125760;27;20379;-83
2022/03/18 14:44:35;;;;;;;;;;;21.50;90.80;;;;;;5140460;27;19924;-86
2022/03/18 14:47:00;;;;;;;;;;;21.70;91.30;;;;;;5101270;27;19983;-86
2022/03/18 14:49:27;;;;;;;;;;;22.00;90.50;;;;;;5122384;27;19927;-86
2022/03/18 14:51:52;;;;;;;;;;;22.00;90.00;;;;;;5135961;27;20022;-87
2022/03/18 14:56:17;;;;;;;;;;;22.20;90.30;;;;;;5117222;27;20406;-87